Portada
METAR-TAF:

METAR-TAF

Aeropuertos :

Ankara Esenboğa, Turquía

Aeropuerto Internacional Esenboğa

latitud: 40-07N, longitud: 032-59E, altitud: 953 m

Observación

El informe se hizo hace 20 minutos, a las 23:20 UTC
Viento calma
Temperatura 4°C
Humedad 60%
Presión 1020 hPa
Visibilidad 10 km o más
sin nubes por debajo de 1500 m y sin presencia de cumulonimbus.

METAR: LTAC 202320Z 00000KT CAVOK 04/M03 Q1020 NOSIG RMK RWY21L 00000KT RWY03L 03001KT RWY21R VRB01KT

Hora: 02:40 (23:40 UTC)

Pronóstico

El informe se hizo hace 1 hora y 0 minutos, a las 22:40 UTC
Pronóstico válido del 21 a las 00 UTC al 21 a las 24 UTC
Viento 2 kt con dirección variable
Visibilidad 10 km o más
sin nubes por debajo de 1500 m y sin presencia de cumulonimbus.

TAF: LTAC 202240Z 2100/2124 VRB02KT CAVOK

Observaciones y pronósticos meteorológicos de más de 4000 aeropuertos (mensajes METAR y TAF).

Los puntos amarillos y rojos representan las estaciones disponibles.

Ponga el ratón en el punto deseado para ver el nombre de la estación.

Haga clic para ver las observaciones y los pronósticos meteorológicos.

Para cambiar el mapa : haga clic en los botones verdes con una cruz de color negro para hacer un zoom, en el botón verde con un guión para alejar o en las flechas verdes para mapas adyacentes.


METAR-TAF: